createdAt,value
2023-03-19T00:01:48.698Z,12
2023-03-19T00:03:51.780Z,11.9
2023-03-19T00:05:54.761Z,11.9
2023-03-19T00:08:00.919Z,11.7
2023-03-19T00:10:04.004Z,11.6
2023-03-19T00:12:07.046Z,11.6
2023-03-19T00:14:10.129Z,11.6
2023-03-19T00:16:13.302Z,11.4
2023-03-19T00:22:25.591Z,11.3
2023-03-19T00:24:28.761Z,11.4
2023-03-19T00:26:31.826Z,11.2
2023-03-19T00:31:41.236Z,11.3
2023-03-19T00:35:50.704Z,11.2
2023-03-19T00:37:53.887Z,11.1
2023-03-19T00:39:57.021Z,11.1
2023-03-19T00:42:00.131Z,11.1
2023-03-19T00:44:03.256Z,11.2
2023-03-19T00:46:06.533Z,11
2023-03-19T00:48:09.568Z,11.1
2023-03-19T00:50:15.959Z,10.9
2023-03-19T00:52:19.553Z,11
2023-03-19T00:54:22.268Z,11
2023-03-19T00:56:25.427Z,11.1
2023-03-19T00:58:28.588Z,11
2023-03-19T01:00:31.764Z,10.9
2023-03-19T01:02:35.337Z,11
2023-03-19T01:04:41.365Z,11
2023-03-19T01:06:44.447Z,11
2023-03-19T01:08:47.610Z,11
2023-03-19T01:12:53.937Z,11
2023-03-19T01:14:57.099Z,11
2023-03-19T01:17:00.242Z,11.1
2023-03-19T01:19:06.536Z,11
2023-03-19T01:23:12.829Z,11
2023-03-19T01:25:30.631Z,10.9
2023-03-19T01:27:33.808Z,10.9
2023-03-19T01:31:43.380Z,10.8
2023-03-19T01:33:46.534Z,10.9
2023-03-19T01:35:49.712Z,10.9
2023-03-19T01:37:52.820Z,10.8
2023-03-19T01:39:55.975Z,10.7
2023-03-19T01:41:59.185Z,10.7
2023-03-19T01:44:02.331Z,10.6
2023-03-19T01:46:08.726Z,10.6
2023-03-19T01:48:11.841Z,10.5
2023-03-19T01:50:14.976Z,10.6
2023-03-19T01:52:18.159Z,10.5
2023-03-19T01:54:21.306Z,10.5
2023-03-19T01:56:24.473Z,10.6
2023-03-19T02:02:37.156Z,10.6
2023-03-19T02:04:40.431Z,10.6
2023-03-19T02:06:43.541Z,10.6
2023-03-19T02:08:46.640Z,10.6
2023-03-19T02:10:49.818Z,10.7
2023-03-19T02:12:53.040Z,10.6
2023-03-19T02:14:59.365Z,10.4
2023-03-19T02:17:02.554Z,10.4
2023-03-19T02:19:05.666Z,10.6
2023-03-19T02:20:08.860Z,10.5
2023-03-19T02:22:12.030Z,10.5
2023-03-19T02:24:15.171Z,10.4
2023-03-19T02:26:18.358Z,10.4
2023-03-19T02:28:24.729Z,10.3
2023-03-19T02:30:27.856Z,10.4
2023-03-19T02:32:31.066Z,10.2
2023-03-19T02:38:40.529Z,10.2
2023-03-19T02:40:43.646Z,10.3
2023-03-19T02:44:53.181Z,10.3
2023-03-19T02:46:56.361Z,10.3
2023-03-19T02:51:02.633Z,10.4
2023-03-19T02:53:05.774Z,10.4
2023-03-19T02:57:16.846Z,10.3
2023-03-19T02:59:19.980Z,10.4
2023-03-19T03:01:23.206Z,10.4
2023-03-19T03:07:32.666Z,10.5
2023-03-19T03:11:42.116Z,10.4
2023-03-19T03:13:45.282Z,10.4
2023-03-19T03:15:48.528Z,10.5
2023-03-19T03:16:51.603Z,10.5
2023-03-19T03:18:54.791Z,10.5
2023-03-19T03:23:01.050Z,10.4
2023-03-19T03:27:10.610Z,10.4
2023-03-19T03:29:13.747Z,10.3
2023-03-19T03:33:20.079Z,10.4
2023-03-19T03:37:26.382Z,10.3
2023-03-19T03:39:32.722Z,10.3
2023-03-19T03:41:35.888Z,10.2
2023-03-19T03:43:39.073Z,10.2
2023-03-19T03:45:42.218Z,10.1
2023-03-19T03:47:45.358Z,10.1
2023-03-19T03:49:48.531Z,10
2023-03-19T03:51:51.669Z,10.1
2023-03-19T03:53:58.046Z,9.9
2023-03-19T03:56:01.183Z,10
2023-03-19T03:58:04.315Z,10
2023-03-19T04:00:07.469Z,9.9
2023-03-19T04:02:10.643Z,9.9
2023-03-19T04:04:13.714Z,9.9
2023-03-19T04:06:16.923Z,9.9
2023-03-19T04:08:23.234Z,9.9
2023-03-19T04:10:26.375Z,9.9
2023-03-19T04:12:29.519Z,9.9
2023-03-19T04:17:38.998Z,9.9
2023-03-19T04:19:42.149Z,9.8
2023-03-19T04:21:48.481Z,9.8
2023-03-19T04:23:51.655Z,9.7
2023-03-19T04:25:54.798Z,9.8
2023-03-19T04:27:57.930Z,9.8
2023-03-19T04:30:01.088Z,9.7
2023-03-19T04:32:04.245Z,9.8
2023-03-19T04:34:07.348Z,9.8
2023-03-19T04:36:13.676Z,9.7
2023-03-19T04:38:16.813Z,9.7
2023-03-19T04:40:19.977Z,9.8
2023-03-19T04:42:23.144Z,9.8
2023-03-19T04:44:26.271Z,9.8
2023-03-19T04:46:29.502Z,9.7
2023-03-19T04:48:32.645Z,9.8
2023-03-19T04:50:38.931Z,9.8
2023-03-19T04:52:42.036Z,9.9
2023-03-19T04:54:45.181Z,9.9
2023-03-19T04:56:48.301Z,9.8
2023-03-19T04:58:51.473Z,9.7
2023-03-19T05:00:54.624Z,9.7
2023-03-19T05:02:57.760Z,9.7
2023-03-19T05:11:40.192Z,9.7
2023-03-19T05:17:52.839Z,9.6
2023-03-19T05:19:55.985Z,9.5
2023-03-19T05:21:59.157Z,9.6
2023-03-19T05:24:02.280Z,9.6
2023-03-19T05:26:05.584Z,9.7
2023-03-19T05:28:08.604Z,9.6
2023-03-19T05:30:11.730Z,9.5
2023-03-19T05:32:18.086Z,9.6
2023-03-19T05:34:21.215Z,9.5
2023-03-19T05:36:24.350Z,9.5
2023-03-19T05:38:27.528Z,9.4
2023-03-19T05:40:30.678Z,9.5
2023-03-19T05:42:33.809Z,9.6
2023-03-19T05:44:37.029Z,9.7
2023-03-19T05:46:43.340Z,9.6
2023-03-19T05:48:46.447Z,9.5
2023-03-19T05:50:49.597Z,9.5
2023-03-19T05:52:52.752Z,9.6
2023-03-19T05:56:59.052Z,9.6
2023-03-19T05:59:02.176Z,9.7
2023-03-19T06:01:08.497Z,9.7
2023-03-19T06:03:11.714Z,9.7
2023-03-19T06:05:14.803Z,9.5
2023-03-19T06:06:18.140Z,9.6
2023-03-19T06:08:21.117Z,9.7
2023-03-19T06:10:24.262Z,9.7
2023-03-19T06:12:27.396Z,9.7
2023-03-19T06:14:33.771Z,9.7
2023-03-19T06:16:36.901Z,9.7
2023-03-19T06:18:40.056Z,9.7
2023-03-19T06:24:49.487Z,9.9
2023-03-19T06:28:58.963Z,9.9
2023-03-19T06:31:02.232Z,9.9
2023-03-19T06:33:05.360Z,9.9
2023-03-19T06:35:08.420Z,9.9
2023-03-19T06:37:11.563Z,10
2023-03-19T06:39:14.725Z,10
2023-03-19T06:41:17.866Z,10
2023-03-19T06:43:24.183Z,10.3
2023-03-19T06:45:27.380Z,10.4
2023-03-19T06:47:30.475Z,10.4
2023-03-19T06:49:33.659Z,10.5
2023-03-19T06:51:36.781Z,10.4
2023-03-19T06:53:39.923Z,10.2
2023-03-19T06:55:43.059Z,10.3
2023-03-19T06:57:49.389Z,10.2
2023-03-19T06:59:52.512Z,10.3
2023-03-19T07:02:58.838Z,10.1
2023-03-19T07:05:01.977Z,10.1
2023-03-19T07:07:05.109Z,10.1
2023-03-19T07:09:08.235Z,10.1
2023-03-19T07:13:17.744Z,10.9
2023-03-19T07:15:20.878Z,12
2023-03-19T07:17:24.027Z,12.7
2023-03-19T07:19:27.154Z,12.8
2023-03-19T07:21:30.323Z,12
2023-03-19T07:23:33.447Z,11.3
2023-03-19T07:25:39.939Z,10.9
2023-03-19T07:27:42.971Z,11
2023-03-19T07:29:46.132Z,11
2023-03-19T07:31:49.311Z,11
2023-03-19T07:33:52.443Z,11.2
2023-03-19T07:37:58.759Z,11.2
2023-03-19T07:40:05.214Z,11.2
2023-03-19T07:42:08.287Z,11.1
2023-03-19T07:44:11.422Z,11.4
2023-03-19T07:46:14.632Z,11.4
2023-03-19T07:48:17.747Z,11.4
2023-03-19T07:50:20.883Z,11.2
2023-03-19T07:52:24.058Z,11.2
2023-03-19T07:54:30.422Z,11.3
2023-03-19T07:56:33.574Z,11.1
2023-03-19T07:58:36.748Z,11.1
2023-03-19T07:59:39.816Z,11
2023-03-19T08:01:42.986Z,11.1
2023-03-19T08:03:46.124Z,11.3
2023-03-19T08:05:49.281Z,11.3
2023-03-19T08:07:55.693Z,11.4
2023-03-19T08:09:58.842Z,11.5
2023-03-19T08:12:02.010Z,11.2
2023-03-19T08:14:05.147Z,11.2
2023-03-19T08:16:08.316Z,11.3
2023-03-19T08:18:11.494Z,11.4
2023-03-19T08:20:14.617Z,11.5
2023-03-19T08:22:21.015Z,11.7
2023-03-19T08:24:24.171Z,11.7
2023-03-19T08:26:27.334Z,11.6
2023-03-19T08:28:30.482Z,11.6
2023-03-19T08:30:33.988Z,11.6
2023-03-19T08:34:39.758Z,11.5
2023-03-19T08:38:49.095Z,11.4
2023-03-19T08:44:58.247Z,11.8
2023-03-19T08:47:01.314Z,11.8
2023-03-19T08:49:04.359Z,11.7
2023-03-19T08:51:12.076Z,11.9
2023-03-19T08:53:15.116Z,11.9
2023-03-19T08:55:18.173Z,11.8
2023-03-19T08:57:47.709Z,11.8
2023-03-19T08:59:50.768Z,11.9
2023-03-19T09:01:53.880Z,11.9
2023-03-19T09:03:59.976Z,11.6
2023-03-19T09:06:03.065Z,11.7
2023-03-19T09:08:06.089Z,11.8
2023-03-19T09:10:09.156Z,11.9
2023-03-19T09:12:12.225Z,11.9
2023-03-19T09:14:15.263Z,12.2
2023-03-19T09:16:18.357Z,12.4
2023-03-19T09:18:24.468Z,13.3
2023-03-19T09:20:27.542Z,13.6
2023-03-19T09:22:30.591Z,13.9
2023-03-19T09:24:33.666Z,12.9
2023-03-19T09:26:36.747Z,13
2023-03-19T09:28:39.805Z,13.3
2023-03-19T09:30:42.838Z,13.3
2023-03-19T09:32:49.049Z,13.4
2023-03-19T09:34:52.032Z,13.4
2023-03-19T09:36:55.112Z,13.9
2023-03-19T09:38:58.172Z,13.8
2023-03-19T09:41:01.225Z,14.1
2023-03-19T09:45:07.338Z,14.3
2023-03-19T09:47:13.490Z,14.6
2023-03-19T09:51:19.625Z,14.7
2023-03-19T09:52:22.706Z,15.2
2023-03-19T09:56:28.829Z,15.4
2023-03-19T10:00:38.009Z,15
2023-03-19T10:02:41.122Z,15.3
2023-03-19T10:04:44.161Z,15.3
2023-03-19T10:19:08.599Z,16.2
2023-03-19T10:25:17.728Z,16.3
2023-03-19T10:27:20.819Z,16.2
2023-03-19T10:29:26.930Z,16.8
2023-03-19T10:31:30.070Z,17
2023-03-19T10:33:33.012Z,17.3
2023-03-19T10:37:39.089Z,17.5
2023-03-19T10:41:45.951Z,17.7
2023-03-19T10:43:51.772Z,16.9
2023-03-19T10:47:57.810Z,15.9
2023-03-19T10:49:00.883Z,15.8
2023-03-19T10:51:03.880Z,16.2
2023-03-19T10:55:09.946Z,16.2
2023-03-19T10:57:16.953Z,16.7
2023-03-19T10:59:19.957Z,16.6
2023-03-19T11:05:31.661Z,17.8
2023-03-19T11:07:32.014Z,17.9
2023-03-19T11:09:35.004Z,18.7
2023-03-19T11:11:41.114Z,18.8
2023-03-19T11:13:44.106Z,18.4
2023-03-19T11:15:47.070Z,18.2
2023-03-19T11:17:50.117Z,18.8
2023-03-19T11:19:53.053Z,18.1
2023-03-19T11:21:56.048Z,17.3
2023-03-19T11:23:59.018Z,18.1
2023-03-19T11:26:05.130Z,18.8
2023-03-19T11:28:08.065Z,18.5
2023-03-19T11:30:11.033Z,18.9
2023-03-19T11:32:21.524Z,18.6
2023-03-19T11:34:16.938Z,17.7
2023-03-19T11:36:19.951Z,18.2
2023-03-19T11:38:22.860Z,18.7
2023-03-19T11:40:28.972Z,18.4
2023-03-19T11:42:31.931Z,18.6
2023-03-19T11:44:34.861Z,18.8
2023-03-19T11:45:40.666Z,17.7
2023-03-19T11:47:40.847Z,17.1
2023-03-19T11:49:43.807Z,16.9
2023-03-19T11:51:46.772Z,16.3
2023-03-19T11:53:52.837Z,16.4
2023-03-19T11:57:58.752Z,15.6
2023-03-19T12:00:01.776Z,15.8
2023-03-19T12:02:04.844Z,15.7
2023-03-19T12:04:07.718Z,15.4
2023-03-19T12:10:19.790Z,16.1
2023-03-19T12:12:23.618Z,17.1
2023-03-19T12:16:34.542Z,17.3
2023-03-19T12:18:31.772Z,17.4
2023-03-19T12:20:34.754Z,17.6
2023-03-19T12:22:40.849Z,17.8
2023-03-19T12:24:43.818Z,17.9
2023-03-19T12:26:46.806Z,17.7
2023-03-19T12:28:49.755Z,17.9
2023-03-19T12:32:55.798Z,17.9
2023-03-19T12:34:58.637Z,18.3
2023-03-19T12:37:04.721Z,18.2
2023-03-19T12:39:07.664Z,18.2
2023-03-19T12:41:11.247Z,17.8
2023-03-19T12:43:39.725Z,17.5
2023-03-19T12:45:42.688Z,17.2
2023-03-19T12:47:45.643Z,17
2023-03-19T12:49:51.707Z,17.3
2023-03-19T13:06:18.570Z,16.7
2023-03-19T13:08:21.506Z,17
2023-03-19T13:10:24.480Z,16.7
2023-03-19T13:18:39.490Z,16.5
2023-03-19T13:22:45.482Z,15.2
2023-03-19T13:24:48.451Z,15.1
2023-03-19T13:26:51.455Z,14.5
2023-03-19T13:30:57.425Z,14.5
2023-03-19T13:33:03.620Z,14.2
2023-03-19T13:35:06.540Z,14.2
2023-03-19T13:37:09.557Z,14.6
2023-03-19T13:38:12.606Z,14.8
2023-03-19T13:40:15.640Z,15.6
2023-03-19T13:42:18.623Z,14.7
2023-03-19T13:44:21.678Z,15.1
2023-03-19T13:46:27.780Z,15.7
2023-03-19T13:48:30.776Z,16.3
2023-03-19T13:50:34.130Z,17.1
2023-03-19T13:52:36.833Z,16.8
2023-03-19T13:54:39.849Z,17.5
2023-03-19T13:56:42.854Z,18.3
2023-03-19T13:58:45.903Z,18.7
2023-03-19T14:02:54.993Z,17.4
2023-03-19T14:04:57.966Z,18.4
2023-03-19T14:07:00.978Z,19
2023-03-19T14:09:03.971Z,17.5
2023-03-19T14:11:06.965Z,18.2
2023-03-19T14:13:09.985Z,18.3
2023-03-19T14:15:17.858Z,16.9
2023-03-19T14:17:19.496Z,17.9
2023-03-19T14:19:22.675Z,18.1
2023-03-19T14:21:25.037Z,17.7
2023-03-19T14:23:39.670Z,18
2023-03-19T14:25:31.031Z,19.7
2023-03-19T14:27:33.979Z,20
2023-03-19T14:29:40.089Z,18.2
2023-03-19T14:31:43.111Z,18.7
2023-03-19T14:33:46.029Z,19.7
2023-03-19T14:34:49.064Z,20.2
2023-03-19T14:36:52.046Z,19.8
2023-03-19T14:40:57.950Z,19.3
2023-03-19T14:45:08.535Z,19.4
2023-03-19T14:53:20.333Z,20
2023-03-19T15:05:41.116Z,17.1
2023-03-19T15:07:44.069Z,18.2
2023-03-19T15:09:47.021Z,19.2
2023-03-19T15:11:53.095Z,18.8
2023-03-19T15:13:56.028Z,18.6
2023-03-19T15:15:58.991Z,18.7
2023-03-19T15:18:04.174Z,19.5
2023-03-19T15:20:04.921Z,18.8
2023-03-19T15:22:08.754Z,19.3
2023-03-19T15:24:11.695Z,19.3
2023-03-19T15:26:17.786Z,16.7
2023-03-19T15:28:20.712Z,17.2
2023-03-19T15:30:24.795Z,18.4
2023-03-19T15:35:32.767Z,18.2
2023-03-19T15:39:41.740Z,18.6
2023-03-19T15:41:44.704Z,19.5
2023-03-19T15:49:56.601Z,18
2023-03-19T15:51:59.612Z,17.6
2023-03-19T15:54:05.669Z,16.2
2023-03-19T15:56:08.680Z,15.3
2023-03-19T16:00:14.673Z,15.8
2023-03-19T16:02:17.734Z,17.3
2023-03-19T16:08:29.723Z,15
2023-03-19T16:10:33.021Z,14.6
2023-03-19T16:12:35.744Z,15.1
2023-03-19T16:18:44.783Z,16.6
2023-03-19T16:20:47.793Z,16.6
2023-03-19T16:22:53.950Z,14.7
2023-03-19T16:24:56.959Z,14.2
2023-03-19T16:33:35.468Z,13.5
2023-03-19T16:35:41.674Z,13.3
2023-03-19T16:37:44.639Z,13.3
2023-03-19T16:43:54.510Z,13.4
2023-03-19T16:45:57.586Z,13.2
2023-03-19T16:48:00.632Z,13.1
2023-03-19T16:50:06.789Z,13.1
2023-03-19T16:52:10.420Z,13.1
2023-03-19T16:54:12.907Z,12.9
2023-03-19T16:56:16.003Z,12.9
2023-03-19T16:58:19.083Z,12.9
2023-03-19T17:00:22.117Z,13
2023-03-19T17:02:25.206Z,12.9
2023-03-19T17:04:31.374Z,12.9
2023-03-19T17:06:34.444Z,12.8
2023-03-19T17:08:37.498Z,12.8
2023-03-19T17:10:40.540Z,12.7
2023-03-19T17:12:43.621Z,12.5
2023-03-19T17:14:46.695Z,12.5
2023-03-19T17:16:49.776Z,12.5
2023-03-19T17:18:55.942Z,12.4
2023-03-19T17:24:05.169Z,12.3
2023-03-19T17:28:11.313Z,12.1
2023-03-19T17:30:14.378Z,12.2
2023-03-19T17:32:20.551Z,12.2
2023-03-19T17:34:23.639Z,12.2
2023-03-19T17:36:26.687Z,12.1
2023-03-19T17:38:29.757Z,12.1
2023-03-19T17:40:33.148Z,12
2023-03-19T17:42:35.979Z,12
2023-03-19T17:44:39.153Z,11.9
2023-03-19T17:46:45.378Z,11.9
2023-03-19T17:48:48.505Z,11.7
2023-03-19T17:52:54.820Z,11.7
2023-03-19T17:54:58.018Z,11.7
2023-03-19T17:59:05.127Z,11.6
2023-03-19T18:03:14.659Z,11.4
2023-03-19T18:05:17.840Z,11.4
2023-03-19T18:09:24.175Z,11.3
2023-03-19T18:19:43.166Z,11.4
2023-03-19T18:20:46.279Z,11.3
2023-03-19T18:22:49.340Z,11.4
2023-03-19T18:24:52.397Z,11.3
2023-03-19T18:26:55.476Z,11.4
2023-03-19T18:29:01.731Z,11.3
2023-03-19T18:31:04.784Z,11.3
2023-03-19T18:33:07.939Z,11.3
2023-03-19T18:35:10.909Z,11.4
2023-03-19T18:37:14.251Z,11.2
2023-03-19T18:39:17.026Z,11.2
2023-03-19T18:41:20.102Z,11.3
2023-03-19T18:43:26.229Z,11.2
2023-03-19T18:45:29.311Z,11.2
2023-03-19T18:47:32.356Z,11.2
2023-03-19T18:49:35.448Z,11.1
2023-03-19T18:55:44.642Z,11.2
2023-03-19T18:57:53.821Z,11.1
2023-03-19T18:59:53.948Z,11.1
2023-03-19T19:01:57.105Z,11.2
2023-03-19T19:04:00.005Z,11.2
2023-03-19T19:06:03.055Z,11.1
2023-03-19T19:08:06.112Z,11.2
2023-03-19T19:10:09.183Z,11.1
2023-03-19T19:12:15.342Z,11.1
2023-03-19T19:14:18.437Z,11
2023-03-19T19:16:21.502Z,11
2023-03-19T19:17:24.597Z,11
2023-03-19T19:19:27.730Z,11
2023-03-19T19:21:30.689Z,10.9
2023-03-19T19:23:33.746Z,10.9
2023-03-19T19:25:39.928Z,10.8
2023-03-19T19:27:42.962Z,10.9
2023-03-19T19:29:46.053Z,10.9
2023-03-19T19:31:49.182Z,10.9
2023-03-19T19:33:52.369Z,10.8
2023-03-19T19:35:55.495Z,10.8
2023-03-19T19:37:58.576Z,10.7
2023-03-19T19:40:04.773Z,10.8
2023-03-19T19:42:07.903Z,10.8
2023-03-19T19:46:14.321Z,10.7
2023-03-19T19:48:17.409Z,10.6
2023-03-19T19:50:20.571Z,10.7
2023-03-19T19:52:23.732Z,10.7
2023-03-19T19:56:33.171Z,10.7
2023-03-19T19:58:36.329Z,10.6
2023-03-19T20:00:40.140Z,10.5
2023-03-19T20:02:42.645Z,10.6
2023-03-19T20:04:45.798Z,10.5
2023-03-19T20:06:48.983Z,10.4
2023-03-19T20:08:55.367Z,10.4
2023-03-19T20:21:44.155Z,10.4
2023-03-19T20:27:53.616Z,10.4
2023-03-19T20:29:56.768Z,10.4
2023-03-19T20:34:02.948Z,10.6
2023-03-19T20:38:14.041Z,10.6
2023-03-19T20:44:23.470Z,10.5
2023-03-19T20:50:36.192Z,10.4
2023-03-19T20:52:39.315Z,10.4
2023-03-19T20:54:42.495Z,10.4
2023-03-19T20:56:45.624Z,10.4
2023-03-19T20:58:48.792Z,10.5
2023-03-19T21:00:51.953Z,10.4
2023-03-19T21:02:55.111Z,10.4
2023-03-19T21:05:01.510Z,10.4
2023-03-19T21:07:04.633Z,10.4
2023-03-19T21:09:07.774Z,10.5
2023-03-19T21:10:10.950Z,10.5
2023-03-19T21:12:14.122Z,10.5
2023-03-19T21:14:17.251Z,10.6
2023-03-19T21:16:20.524Z,10.5
2023-03-19T21:18:26.802Z,10.5
2023-03-19T21:20:29.961Z,10.5
2023-03-19T21:22:33.102Z,10.4
2023-03-19T21:24:36.287Z,10.6
2023-03-19T21:28:42.593Z,10.4
2023-03-19T21:34:55.267Z,10.3
2023-03-19T21:41:04.797Z,10.1
2023-03-19T21:43:07.952Z,10.1
2023-03-19T21:45:11.076Z,10.1
2023-03-19T21:47:17.638Z,10.1
2023-03-19T21:49:20.639Z,10.1
2023-03-19T21:51:23.773Z,10
2023-03-19T21:55:30.078Z,10.2
2023-03-19T21:57:33.251Z,10.1
2023-03-19T21:59:36.385Z,10.1
2023-03-19T22:01:42.726Z,10.2
2023-03-19T22:03:45.962Z,10.2
2023-03-19T22:05:49.058Z,10.3
2023-03-19T22:06:52.206Z,10.2
2023-03-19T22:08:55.373Z,10.4
2023-03-19T22:10:58.489Z,10.2
2023-03-19T22:13:01.664Z,10.3
2023-03-19T22:15:08.099Z,10.2
2023-03-19T22:19:14.378Z,10.1
2023-03-19T22:21:17.528Z,10.1
2023-03-19T22:23:20.690Z,10.1
2023-03-19T22:25:23.837Z,10.1
2023-03-19T22:27:26.993Z,10
2023-03-19T22:29:33.370Z,10.1
2023-03-19T22:31:36.532Z,10.1
2023-03-19T22:33:39.653Z,10.1
2023-03-19T22:35:42.829Z,10
2023-03-19T22:37:45.959Z,9.8
2023-03-19T22:39:49.096Z,9.8
2023-03-19T22:41:52.235Z,9.5
2023-03-19T22:43:58.576Z,9.4
2023-03-19T22:46:01.770Z,9.6
2023-03-19T22:48:04.879Z,9.5
2023-03-19T22:50:08.043Z,9.5
2023-03-19T22:52:11.183Z,9.4
2023-03-19T22:54:14.316Z,9.4
2023-03-19T22:56:17.478Z,9.4
2023-03-19T22:58:23.830Z,9.4
2023-03-19T23:00:26.992Z,9.4
2023-03-19T23:02:30.143Z,9.4
2023-03-19T23:03:33.303Z,9.5
2023-03-19T23:05:36.828Z,9.5
2023-03-19T23:07:39.592Z,9.4
2023-03-19T23:09:42.724Z,9.4
2023-03-19T23:11:49.089Z,9.3
2023-03-19T23:17:58.533Z,9.2
2023-03-19T23:20:01.689Z,9
2023-03-19T23:28:17.435Z,9.1
2023-03-19T23:34:26.837Z,9.2
2023-03-19T23:38:33.136Z,9.1
2023-03-19T23:40:39.454Z,9.2
2023-03-19T23:42:42.630Z,9
2023-03-19T23:44:45.772Z,9.1
2023-03-19T23:46:49.037Z,9
2023-03-19T23:48:52.028Z,9.2
2023-03-19T23:50:55.171Z,9.2
2023-03-19T23:52:58.303Z,9.1
2023-03-19T23:55:04.689Z,9.1
2023-03-19T23:57:07.838Z,9.1
2023-03-19T23:59:10.984Z,9
